createdAt,value
2019-02-04T00:00:27.201Z,73.66
2019-02-04T00:04:26.983Z,73.33
2019-02-04T00:06:27.084Z,73.25
2019-02-04T00:10:27.200Z,73.15
2019-02-04T00:12:29.908Z,73.03
2019-02-04T00:16:26.962Z,73.45
2019-02-04T00:18:27.177Z,72.97
2019-02-04T00:22:26.976Z,73.21
2019-02-04T00:24:29.680Z,72.99
2019-02-04T00:28:26.967Z,73.02
2019-02-04T00:30:27.111Z,73.61
2019-02-04T00:34:27.995Z,72.94
2019-02-04T00:36:26.977Z,73.21
2019-02-04T00:40:26.977Z,73.06
2019-02-04T00:42:26.970Z,72.93
2019-02-04T00:46:27.139Z,73.15
2019-02-04T00:48:26.981Z,72.98
2019-02-04T00:52:26.988Z,73.17
2019-02-04T00:54:27.009Z,73.16
2019-02-04T00:58:26.966Z,73.18
2019-02-04T01:00:27.084Z,73.10
2019-02-04T01:04:26.989Z,72.87
2019-02-04T01:06:26.949Z,72.85
2019-02-04T01:10:26.978Z,72.80
2019-02-04T01:12:26.988Z,73.06
2019-02-04T01:16:26.981Z,72.80
2019-02-04T01:18:27.025Z,72.88
2019-02-04T01:22:26.970Z,72.70
2019-02-04T01:24:26.986Z,72.86
2019-02-04T01:28:26.976Z,72.75
2019-02-04T01:30:27.009Z,72.58
2019-02-04T01:34:27.006Z,72.51
2019-02-04T01:36:26.986Z,72.79
2019-02-04T01:40:26.997Z,72.96
2019-02-04T01:42:27.015Z,72.57
2019-02-04T01:46:26.980Z,72.83
2019-02-04T01:48:27.008Z,72.80
2019-02-04T01:52:27.008Z,72.78
2019-02-04T01:54:27.007Z,72.49
2019-02-04T01:58:26.996Z,72.51
2019-02-04T02:00:26.988Z,72.63
2019-02-04T02:04:27.006Z,72.62
2019-02-04T02:06:27.019Z,72.75
2019-02-04T02:10:27.061Z,72.52
2019-02-04T02:12:27.007Z,72.55
2019-02-04T02:16:27.000Z,72.75
2019-02-04T02:18:26.999Z,72.63
2019-02-04T02:22:27.025Z,72.63
2019-02-04T02:24:26.997Z,72.44
2019-02-04T02:28:27.014Z,72.60
2019-02-04T02:30:26.989Z,72.57
2019-02-04T02:34:27.020Z,72.58
2019-02-04T02:36:26.990Z,72.54
2019-02-04T02:40:27.016Z,72.43
2019-02-04T02:42:27.021Z,72.39
2019-02-04T02:46:27.010Z,72.69
2019-02-04T02:48:27.000Z,72.67
2019-02-04T02:52:27.005Z,72.54
2019-02-04T02:54:27.022Z,72.53
2019-02-04T02:58:27.006Z,72.53
2019-02-04T03:00:27.020Z,72.40
2019-02-04T03:04:27.043Z,72.46
2019-02-04T03:06:26.999Z,72.44
2019-02-04T03:10:27.058Z,72.51
2019-02-04T03:12:27.031Z,72.44
2019-02-04T03:16:27.024Z,72.53
2019-02-04T03:18:26.994Z,72.59
2019-02-04T03:22:27.009Z,72.64
2019-02-04T03:24:27.012Z,72.55
2019-02-04T03:28:27.046Z,72.63
2019-02-04T03:30:27.010Z,72.55
2019-02-04T03:34:27.018Z,72.50
2019-02-04T03:36:27.034Z,72.33
2019-02-04T03:40:27.011Z,72.54
2019-02-04T03:42:27.026Z,72.41
2019-02-04T03:46:27.006Z,72.59
2019-02-04T03:48:27.004Z,72.34
2019-02-04T03:52:27.032Z,72.41
2019-02-04T03:54:27.084Z,72.43
2019-02-04T03:58:27.016Z,72.21
2019-02-04T04:00:27.019Z,72.33
2019-02-04T04:04:27.044Z,72.53
2019-02-04T04:06:27.038Z,72.45
2019-02-04T04:10:27.041Z,72.46
2019-02-04T04:12:27.058Z,72.51
2019-02-04T04:16:27.030Z,72.51
2019-02-04T04:18:27.054Z,72.33
2019-02-04T04:22:27.028Z,72.28
2019-02-04T04:24:27.073Z,72.41
2019-02-04T04:28:27.071Z,72.51
2019-02-04T04:30:27.049Z,72.60
2019-02-04T04:34:27.062Z,72.48
2019-02-04T04:36:27.048Z,72.40
2019-02-04T04:40:27.038Z,72.51
2019-02-04T04:42:27.028Z,72.45
2019-02-04T04:46:27.073Z,72.39
2019-02-04T04:48:27.048Z,72.47
2019-02-04T04:52:27.079Z,72.57
2019-02-04T04:54:27.048Z,72.62
2019-02-04T04:58:27.075Z,72.43
2019-02-04T05:00:27.044Z,72.27
2019-02-04T05:04:27.047Z,72.39
2019-02-04T05:08:27.029Z,72.61
2019-02-04T05:10:27.080Z,72.43
2019-02-04T05:14:27.027Z,72.53
2019-02-04T05:16:27.061Z,72.62
2019-02-04T05:20:27.056Z,72.42
2019-02-04T05:22:27.032Z,72.35
2019-02-04T05:26:27.017Z,72.38
2019-02-04T05:28:27.060Z,72.32
2019-02-04T05:32:27.062Z,72.49
2019-02-04T05:34:27.031Z,72.53
2019-02-04T05:38:27.076Z,72.31
2019-02-04T05:40:27.052Z,72.11
2019-02-04T05:44:27.055Z,72.20
2019-02-04T05:46:27.054Z,71.98
2019-02-04T05:50:27.096Z,72.22
2019-02-04T05:52:27.048Z,72.05
2019-02-04T05:56:27.059Z,72.09
2019-02-04T05:58:27.071Z,72.14
2019-02-04T06:02:27.053Z,72.29
2019-02-04T06:04:27.063Z,72.12
2019-02-04T06:08:27.078Z,72.31
2019-02-04T06:10:27.044Z,72.00
2019-02-04T06:14:27.096Z,72.46
2019-02-04T06:16:27.080Z,72.05
2019-02-04T06:20:27.051Z,72.15
2019-02-04T06:22:27.087Z,72.32
2019-02-04T06:26:27.072Z,71.95
2019-02-04T06:28:27.044Z,72.05
2019-02-04T06:32:27.045Z,72.01
2019-02-04T06:34:27.051Z,72.04
2019-02-04T06:38:27.055Z,72.01
2019-02-04T06:40:27.074Z,71.89
2019-02-04T06:44:27.052Z,71.83
2019-02-04T06:46:27.100Z,71.84
2019-02-04T06:50:27.087Z,71.80
2019-02-04T06:52:27.084Z,71.86
2019-02-04T06:56:27.077Z,71.87
2019-02-04T06:58:27.093Z,72.03
2019-02-04T07:02:27.078Z,72.02
2019-02-04T07:04:27.080Z,71.61
2019-02-04T07:08:27.094Z,71.69
2019-02-04T07:10:27.075Z,71.66
2019-02-04T07:14:27.096Z,71.65
2019-02-04T07:16:27.081Z,71.82
2019-02-04T07:20:27.103Z,71.42
2019-02-04T07:22:27.127Z,71.51
2019-02-04T07:26:27.093Z,71.52
2019-02-04T07:28:27.166Z,71.78
2019-02-04T07:32:27.102Z,71.41
2019-02-04T07:34:27.084Z,71.33
2019-02-04T07:38:27.087Z,71.59
2019-02-04T07:40:27.076Z,71.56
2019-02-04T07:44:27.219Z,71.75
2019-02-04T07:46:27.100Z,71.80
2019-02-04T07:50:27.106Z,71.46
2019-02-04T07:52:27.071Z,71.76
2019-02-04T07:56:27.140Z,71.47
2019-02-04T07:58:27.086Z,71.61
2019-02-04T08:02:27.098Z,71.87
2019-02-04T08:06:27.133Z,71.48
2019-02-04T08:08:27.133Z,71.50
2019-02-04T08:12:27.094Z,71.66
2019-02-04T08:16:27.075Z,71.65
2019-02-04T08:18:27.099Z,71.53
2019-02-04T08:22:27.092Z,71.73
2019-02-04T08:24:27.102Z,71.71
2019-02-04T08:28:27.103Z,71.80
2019-02-04T08:30:27.100Z,71.65
2019-02-04T08:34:27.101Z,71.65
2019-02-04T08:36:27.107Z,71.52
2019-02-04T08:40:27.098Z,71.57
2019-02-04T08:42:27.098Z,71.70
2019-02-04T08:46:27.136Z,71.71
2019-02-04T08:48:27.108Z,71.80
2019-02-04T08:52:27.259Z,71.85
2019-02-04T08:54:27.108Z,71.61
2019-02-04T08:58:27.136Z,71.83
2019-02-04T09:00:27.082Z,71.72
2019-02-04T09:04:27.097Z,71.92
2019-02-04T09:06:27.111Z,71.99
2019-02-04T09:10:27.115Z,72.00
2019-02-04T09:12:27.135Z,71.90
2019-02-04T09:16:27.116Z,71.95
2019-02-04T09:18:27.090Z,71.68
2019-02-04T09:22:27.121Z,71.97
2019-02-04T09:24:27.118Z,72.02
2019-02-04T09:28:29.756Z,71.74
2019-02-04T09:30:32.299Z,71.85
2019-02-04T09:34:29.776Z,71.82
2019-02-04T09:36:28.206Z,71.87
2019-02-04T09:40:28.267Z,71.91
2019-02-04T09:42:28.121Z,71.97
2019-02-04T09:46:27.105Z,72.03
2019-02-04T09:48:27.126Z,72.03
2019-02-04T09:52:27.089Z,71.94
2019-02-04T09:54:27.120Z,71.90
2019-02-04T09:58:32.343Z,71.80
2019-02-04T10:00:27.137Z,72.06
2019-02-04T10:04:27.128Z,71.87
2019-02-04T10:06:27.128Z,72.05
2019-02-04T10:10:27.128Z,71.84
2019-02-04T10:12:27.120Z,71.89
2019-02-04T10:16:27.144Z,72.15
2019-02-04T10:18:27.113Z,72.20
2019-02-04T10:22:27.233Z,72.13
2019-02-04T10:24:27.168Z,72.08
2019-02-04T10:28:27.095Z,72.16
2019-02-04T10:30:27.154Z,72.08
2019-02-04T10:34:27.147Z,72.39
2019-02-04T10:36:27.129Z,72.53
2019-02-04T10:40:27.141Z,72.16
2019-02-04T10:42:27.115Z,72.29
2019-02-04T10:46:27.157Z,72.29
2019-02-04T10:48:27.159Z,72.20
2019-02-04T10:52:27.134Z,72.20
2019-02-04T10:54:27.119Z,72.21
2019-02-04T10:58:27.149Z,72.15
2019-02-04T11:00:27.130Z,72.24
2019-02-04T11:04:27.129Z,72.20
2019-02-04T11:06:27.153Z,72.32
2019-02-04T11:10:27.137Z,72.48
2019-02-04T11:12:27.136Z,72.39
2019-02-04T11:16:27.143Z,72.30
2019-02-04T11:18:27.208Z,72.39
2019-02-04T11:22:27.140Z,72.29
2019-02-04T11:24:27.215Z,72.54
2019-02-04T11:28:27.175Z,72.38
2019-02-04T11:30:27.127Z,72.27
2019-02-04T11:34:27.145Z,72.76
2019-02-04T11:36:27.137Z,72.44
2019-02-04T11:40:27.134Z,72.29
2019-02-04T11:42:27.155Z,72.55
2019-02-04T11:46:27.180Z,72.52
2019-02-04T11:48:27.147Z,72.58
2019-02-04T11:52:27.126Z,72.31
2019-02-04T11:54:27.161Z,72.26
2019-02-04T11:58:27.149Z,72.83
2019-02-04T12:00:27.250Z,72.75
2019-02-04T12:04:27.146Z,72.36
2019-02-04T12:06:27.135Z,72.58
2019-02-04T12:10:27.155Z,72.42
2019-02-04T12:12:27.142Z,72.51
2019-02-04T12:16:27.185Z,72.21
2019-02-04T12:18:27.148Z,72.47
2019-02-04T12:22:27.159Z,72.33
2019-02-04T12:24:27.161Z,72.75
2019-02-04T12:28:27.159Z,72.52
2019-02-04T12:30:27.300Z,72.58
2019-02-04T12:34:27.141Z,72.35
2019-02-04T12:36:27.178Z,72.62
2019-02-04T12:40:27.163Z,72.60
2019-02-04T12:42:27.169Z,72.55
2019-02-04T12:46:27.172Z,72.55
2019-02-04T12:48:27.145Z,72.84
2019-02-04T12:52:27.203Z,72.56
2019-02-04T12:54:27.154Z,72.47
2019-02-04T12:58:27.169Z,72.73
2019-02-04T13:00:27.279Z,72.48
2019-02-04T13:04:27.155Z,72.66
2019-02-04T13:06:27.191Z,72.59
2019-02-04T13:10:27.209Z,72.43
2019-02-04T13:12:27.156Z,72.44
2019-02-04T13:16:27.193Z,72.66
2019-02-04T13:18:27.155Z,72.39
2019-02-04T13:22:27.180Z,72.67
2019-02-04T13:24:27.169Z,72.51
2019-02-04T13:28:27.179Z,72.72
2019-02-04T13:30:27.188Z,72.89
2019-02-04T13:34:27.195Z,72.90
2019-02-04T13:36:27.172Z,72.88
2019-02-04T13:40:27.170Z,72.94
2019-02-04T13:42:27.134Z,73.06
2019-02-04T13:46:27.156Z,73.02
2019-02-04T13:48:27.154Z,72.97
2019-02-04T13:52:27.185Z,73.12
2019-02-04T13:54:27.191Z,73.08
2019-02-04T13:58:27.180Z,73.06
2019-02-04T14:00:27.397Z,73.19
2019-02-04T14:04:27.271Z,73.07
2019-02-04T14:06:27.225Z,73.10
2019-02-04T14:10:27.193Z,73.23
2019-02-04T14:12:27.172Z,73.40
2019-02-04T14:16:27.181Z,73.09
2019-02-04T14:18:27.183Z,73.20
2019-02-04T14:22:27.188Z,73.39
2019-02-04T14:24:27.182Z,73.28
2019-02-04T14:28:27.181Z,73.19
2019-02-04T14:30:27.212Z,73.31
2019-02-04T14:34:27.189Z,73.30
2019-02-04T14:36:27.187Z,73.20
2019-02-04T14:40:27.196Z,73.41
2019-02-04T14:42:27.187Z,73.43
2019-02-04T14:46:27.203Z,73.37
2019-02-04T14:48:27.205Z,73.28
2019-02-04T14:52:27.196Z,73.53
2019-02-04T14:54:37.746Z,73.60
2019-02-04T14:58:27.206Z,73.57
2019-02-04T15:00:27.199Z,73.74
2019-02-04T15:04:27.231Z,73.71
2019-02-04T15:06:27.184Z,73.66
2019-02-04T15:10:27.210Z,73.58
2019-02-04T15:12:27.376Z,73.84
2019-02-04T15:16:29.659Z,73.54
2019-02-04T15:18:27.235Z,73.79
2019-02-04T15:22:33.567Z,73.81
2019-02-04T15:24:27.201Z,73.69
2019-02-04T15:28:27.191Z,73.60
2019-02-04T15:30:27.280Z,73.78
2019-02-04T15:34:27.216Z,73.63
2019-02-04T15:36:27.203Z,73.56
2019-02-04T15:40:27.202Z,73.73
2019-02-04T15:42:32.447Z,73.78
2019-02-04T15:46:27.216Z,73.76
2019-02-04T15:48:27.324Z,73.79
2019-02-04T15:52:27.215Z,73.74
2019-02-04T15:54:27.228Z,74.03
2019-02-04T15:58:27.216Z,73.66
2019-02-04T16:00:27.215Z,73.80
2019-02-04T16:04:27.217Z,73.81
2019-02-04T16:06:27.211Z,73.83
2019-02-04T16:10:27.230Z,73.95
2019-02-04T16:12:27.228Z,73.79
2019-02-04T16:16:27.208Z,73.76
2019-02-04T16:18:27.210Z,74.00
2019-02-04T16:22:27.205Z,73.83
2019-02-04T16:24:27.199Z,73.90
2019-02-04T16:28:27.257Z,73.96
2019-02-04T16:30:27.227Z,73.71
2019-02-04T16:34:27.207Z,73.80
2019-02-04T16:36:27.212Z,74.03
2019-02-04T16:40:27.223Z,73.86
2019-02-04T16:42:27.244Z,74.03
2019-02-04T16:46:27.232Z,73.86
2019-02-04T16:48:27.244Z,74.13
2019-02-04T16:52:27.236Z,74.18
2019-02-04T16:54:27.198Z,74.06
2019-02-04T16:58:27.232Z,74.02
2019-02-04T17:00:27.248Z,74.06
2019-02-04T17:04:27.352Z,74.13
2019-02-04T17:06:27.261Z,74.03
2019-02-04T17:10:27.229Z,74.09
2019-02-04T17:12:27.252Z,74.25
2019-02-04T17:16:27.249Z,74.19
2019-02-04T17:18:27.225Z,73.94
2019-02-04T17:22:27.240Z,74.25
2019-02-04T17:24:27.216Z,74.02
2019-02-04T17:28:27.207Z,73.96
2019-02-04T17:30:27.242Z,74.32
2019-02-04T17:34:27.256Z,74.30
2019-02-04T17:36:27.251Z,74.04
2019-02-04T17:40:27.218Z,74.39
2019-02-04T17:42:27.258Z,74.26
2019-02-04T17:46:27.229Z,74.14
2019-02-04T17:48:27.219Z,74.10
2019-02-04T17:52:27.242Z,74.29
2019-02-04T17:54:27.228Z,74.59
2019-02-04T17:58:27.230Z,74.05
2019-02-04T18:00:27.226Z,74.53
2019-02-04T18:04:27.256Z,74.18
2019-02-04T18:06:27.232Z,74.34
2019-02-04T18:10:27.222Z,74.38
2019-02-04T18:12:27.272Z,74.53
2019-02-04T18:16:27.255Z,74.22
2019-02-04T18:18:27.229Z,74.45
2019-02-04T18:22:32.422Z,74.64
2019-02-04T18:24:27.245Z,74.35
2019-02-04T18:28:27.258Z,74.31
2019-02-04T18:30:27.250Z,74.30
2019-02-04T18:34:27.264Z,74.13
2019-02-04T18:36:27.235Z,74.46
2019-02-04T18:40:27.255Z,74.47
2019-02-04T18:42:27.239Z,74.24
2019-02-04T18:46:27.230Z,74.58
2019-02-04T18:48:27.252Z,74.67
2019-02-04T18:52:27.257Z,74.54
2019-02-04T18:54:27.253Z,74.40
2019-02-04T18:58:27.321Z,74.40
2019-02-04T19:00:27.261Z,74.39
2019-02-04T19:04:27.262Z,74.59
2019-02-04T19:06:27.244Z,74.25
2019-02-04T19:10:27.252Z,74.29
2019-02-04T19:12:34.694Z,74.74
2019-02-04T19:16:27.252Z,74.52
2019-02-04T19:18:27.255Z,74.38
2019-02-04T19:22:27.289Z,74.33
2019-02-04T19:24:27.246Z,74.63
2019-02-04T19:28:27.275Z,74.38
2019-02-04T19:30:27.286Z,74.45
2019-02-04T19:34:27.263Z,74.67
2019-02-04T19:36:27.285Z,74.65
2019-02-04T19:40:27.253Z,74.51
2019-02-04T19:42:27.262Z,74.62
2019-02-04T19:46:27.253Z,74.72
2019-02-04T19:48:27.277Z,74.37
2019-02-04T19:52:27.295Z,74.55
2019-02-04T19:54:27.250Z,74.48
2019-02-04T19:58:27.319Z,74.67
2019-02-04T20:00:27.319Z,74.66
2019-02-04T20:04:27.325Z,74.73
2019-02-04T20:06:27.346Z,74.45
2019-02-04T20:10:27.275Z,74.76
2019-02-04T20:12:27.322Z,74.69
2019-02-04T20:16:27.266Z,74.45
2019-02-04T20:18:27.257Z,74.84
2019-02-04T20:22:27.322Z,74.79
2019-02-04T20:24:33.209Z,74.52
2019-02-04T20:28:27.283Z,74.49
2019-02-04T20:30:27.322Z,74.88
2019-02-04T20:34:27.284Z,74.60
2019-02-04T20:36:27.309Z,74.72
2019-02-04T20:40:27.263Z,74.94
2019-02-04T20:42:27.284Z,74.72
2019-02-04T20:46:27.262Z,74.99
2019-02-04T20:48:27.299Z,74.78
2019-02-04T20:52:27.291Z,74.62
2019-02-04T20:54:27.313Z,74.51
2019-02-04T20:58:27.345Z,74.92
2019-02-04T21:00:27.316Z,74.47
2019-02-04T21:04:27.311Z,74.82
2019-02-04T21:06:27.260Z,74.75
2019-02-04T21:10:27.276Z,74.83
2019-02-04T21:12:27.278Z,75.13
2019-02-04T21:16:27.297Z,75.02
2019-02-04T21:18:27.286Z,74.82
2019-02-04T21:22:27.318Z,75.00
2019-02-04T21:24:27.283Z,75.05
2019-02-04T21:28:27.313Z,74.66
2019-02-04T21:30:27.296Z,74.79
2019-02-04T21:34:27.281Z,74.61
2019-02-04T21:36:27.309Z,74.56
2019-02-04T21:40:27.378Z,75.06
2019-02-04T21:42:27.282Z,75.02
2019-02-04T21:46:27.277Z,74.97
2019-02-04T21:48:27.312Z,75.09
2019-02-04T21:52:27.299Z,74.66
2019-02-04T21:54:27.289Z,74.96
2019-02-04T21:58:27.311Z,74.88
2019-02-04T22:00:27.318Z,75.17
2019-02-04T22:04:27.302Z,74.95
2019-02-04T22:06:27.302Z,75.24
2019-02-04T22:10:27.346Z,75.02
2019-02-04T22:12:27.322Z,75.11
2019-02-04T22:16:27.303Z,75.18
2019-02-04T22:18:27.298Z,74.94
2019-02-04T22:22:27.337Z,75.20
2019-02-04T22:24:27.319Z,74.78
2019-02-04T22:28:27.334Z,74.77
2019-02-04T22:30:27.330Z,74.87
2019-02-04T22:34:27.326Z,75.21
2019-02-04T22:36:27.338Z,74.98
2019-02-04T22:40:29.709Z,75.45
2019-02-04T22:42:27.315Z,75.37
2019-02-04T22:46:27.331Z,74.90
2019-02-04T22:48:27.332Z,75.34
2019-02-04T22:52:27.332Z,75.51
2019-02-04T22:54:27.358Z,75.01
2019-02-04T22:58:27.323Z,75.00
2019-02-04T23:00:27.319Z,74.96
2019-02-04T23:04:27.309Z,75.05
2019-02-04T23:06:27.337Z,74.93
2019-02-04T23:10:27.341Z,75.38
2019-02-04T23:12:27.323Z,75.01
2019-02-04T23:16:27.329Z,75.56
2019-02-04T23:18:27.349Z,75.05
2019-02-04T23:22:27.366Z,75.06
2019-02-04T23:24:27.364Z,75.25
2019-02-04T23:28:27.329Z,75.44
2019-02-04T23:30:27.345Z,75.11
2019-02-04T23:34:27.326Z,75.39
2019-02-04T23:36:27.335Z,75.45
2019-02-04T23:40:27.351Z,75.28
2019-02-04T23:42:27.380Z,75.53
2019-02-04T23:46:27.351Z,75.11
2019-02-04T23:48:27.327Z,75.13
2019-02-04T23:52:27.336Z,75.06
2019-02-04T23:54:27.355Z,75.32
2019-02-04T23:58:27.411Z,75.28
